createdAt,value
2022-12-18T00:00:52.868Z,100.00
2022-12-18T00:03:22.619Z,100.00
2022-12-18T00:05:53.289Z,100.00
2022-12-18T00:08:24.297Z,100.00
2022-12-18T00:10:53.814Z,100.00
2022-12-18T00:13:31.076Z,100.00
2022-12-18T00:16:03.750Z,100.00
2022-12-18T00:18:34.033Z,100.00
2022-12-18T00:21:03.999Z,100.00
2022-12-18T00:23:35.915Z,100.00
2022-12-18T00:26:07.420Z,100.00
2022-12-18T00:28:36.959Z,100.00
2022-12-18T00:31:07.970Z,100.00
2022-12-18T00:33:38.215Z,100.00
2022-12-18T00:36:09.731Z,100.00
2022-12-18T00:38:40.894Z,100.00
2022-12-18T00:41:12.560Z,100.00
2022-12-18T00:43:41.363Z,100.00
2022-12-18T00:46:11.295Z,100.00
2022-12-18T00:48:40.820Z,100.00
2022-12-18T00:51:10.446Z,100.00
2022-12-18T00:53:42.184Z,100.00
2022-12-18T00:56:11.808Z,100.00
2022-12-18T00:58:41.284Z,100.00
2022-12-18T01:01:10.900Z,100.00
2022-12-18T01:03:40.624Z,100.00
2022-12-18T01:06:11.544Z,100.00
2022-12-18T01:08:42.649Z,100.00
2022-12-18T01:11:12.973Z,100.00
2022-12-18T01:13:43.636Z,100.00
2022-12-18T01:16:14.414Z,100.00
2022-12-18T01:18:44.283Z,100.00
2022-12-18T01:21:14.944Z,100.00
2022-12-18T01:23:48.909Z,100.00
2022-12-18T01:26:18.504Z,100.00
2022-12-18T01:28:48.057Z,100.00
2022-12-18T01:31:19.373Z,100.00
2022-12-18T01:33:49.146Z,100.00
2022-12-18T01:36:19.607Z,100.00
2022-12-18T01:38:50.758Z,100.00
2022-12-18T01:41:21.787Z,100.00
2022-12-18T01:43:53.299Z,100.00
2022-12-18T01:46:24.354Z,100.00
2022-12-18T01:48:57.591Z,100.00
2022-12-18T01:51:28.905Z,100.00
2022-12-18T01:54:01.351Z,100.00
2022-12-18T01:56:30.929Z,100.00
2022-12-18T01:59:03.134Z,100.00
2022-12-18T02:01:33.242Z,100.00
2022-12-18T02:04:20.762Z,100.00
2022-12-18T02:06:53.178Z,100.00
2022-12-18T02:09:27.739Z,100.00
2022-12-18T02:12:01.861Z,100.00
2022-12-18T02:14:37.121Z,100.00
2022-12-18T02:17:08.689Z,100.00
2022-12-18T02:19:57.232Z,100.00
2022-12-18T02:22:31.883Z,100.00
2022-12-18T02:25:07.949Z,100.00
2022-12-18T02:27:40.151Z,100.00
2022-12-18T02:30:10.314Z,100.00
2022-12-18T02:32:42.132Z,100.00
2022-12-18T02:35:15.944Z,100.00
2022-12-18T02:37:47.356Z,100.00
2022-12-18T02:40:18.988Z,100.00
2022-12-18T02:42:50.007Z,100.00
2022-12-18T02:45:19.995Z,100.00
2022-12-18T02:47:50.474Z,100.00
2022-12-18T02:50:25.109Z,100.00
2022-12-18T02:52:57.868Z,100.00
2022-12-18T02:55:32.196Z,100.00
2022-12-18T02:58:06.164Z,100.00
2022-12-18T03:00:38.774Z,100.00
2022-12-18T03:03:12.121Z,100.00
2022-12-18T03:05:43.953Z,100.00
2022-12-18T03:08:17.133Z,100.00
2022-12-18T03:10:50.692Z,100.00
2022-12-18T03:13:25.508Z,100.00
2022-12-18T03:15:57.609Z,100.00
2022-12-18T03:18:31.695Z,100.00
2022-12-18T03:21:04.133Z,100.00
2022-12-18T03:23:36.435Z,100.00
2022-12-18T03:26:08.118Z,100.00
2022-12-18T03:28:40.765Z,100.00
2022-12-18T03:31:12.138Z,100.00
2022-12-18T03:33:46.345Z,100.00
2022-12-18T03:36:16.449Z,100.00
2022-12-18T03:38:46.030Z,100.00
2022-12-18T03:41:19.951Z,100.00
2022-12-18T03:43:54.955Z,100.00
2022-12-18T03:46:28.779Z,100.00
2022-12-18T03:49:01.984Z,100.00
2022-12-18T03:51:40.736Z,100.00
2022-12-18T03:54:10.945Z,100.00
2022-12-18T03:56:42.641Z,100.00
2022-12-18T03:59:14.711Z,100.00
2022-12-18T04:01:46.076Z,100.00
2022-12-18T04:04:16.882Z,100.00
2022-12-18T04:06:47.965Z,100.00
2022-12-18T04:09:17.598Z,100.00
2022-12-18T04:11:49.981Z,100.00
2022-12-18T04:14:21.333Z,100.00
2022-12-18T04:16:51.300Z,100.00
2022-12-18T04:19:20.843Z,100.00
2022-12-18T04:21:50.513Z,100.00
2022-12-18T04:24:20.113Z,100.00
2022-12-18T04:26:49.646Z,100.00
2022-12-18T04:29:19.240Z,100.00
2022-12-18T04:31:50.085Z,100.00
2022-12-18T04:34:19.878Z,100.00
2022-12-18T04:36:49.458Z,100.00
2022-12-18T04:39:19.365Z,100.00
2022-12-18T04:41:49.138Z,100.00
2022-12-18T04:44:18.873Z,100.00
2022-12-18T04:46:48.527Z,100.00
2022-12-18T04:49:19.809Z,100.00
2022-12-18T04:51:49.350Z,100.00
2022-12-18T04:54:19.053Z,100.00
2022-12-18T04:56:48.866Z,100.00
2022-12-18T04:59:18.493Z,100.00
2022-12-18T05:01:48.209Z,100.00
2022-12-18T05:04:19.424Z,100.00
2022-12-18T05:06:49.543Z,100.00
2022-12-18T05:09:19.059Z,100.00
2022-12-18T05:11:50.167Z,100.00
2022-12-18T05:14:20.280Z,100.00
2022-12-18T05:16:50.315Z,100.00
2022-12-18T05:19:21.406Z,100.00
2022-12-18T05:21:50.970Z,100.00
2022-12-18T05:24:20.726Z,100.00
2022-12-18T05:26:50.357Z,100.00
2022-12-18T05:29:19.886Z,100.00
2022-12-18T05:31:49.454Z,100.00
2022-12-18T05:34:19.068Z,100.00
2022-12-18T05:36:50.169Z,100.00
2022-12-18T05:39:19.916Z,100.00
2022-12-18T05:41:49.461Z,100.00
2022-12-18T05:44:19.180Z,100.00
2022-12-18T05:46:49.144Z,100.00
2022-12-18T05:49:18.794Z,100.00
2022-12-18T05:51:48.313Z,100.00
2022-12-18T05:54:19.245Z,100.00
2022-12-18T05:56:49.129Z,100.00
2022-12-18T05:59:18.720Z,100.00
2022-12-18T06:01:51.318Z,100.00
2022-12-18T06:04:21.127Z,100.00
2022-12-18T06:06:50.643Z,100.00
2022-12-18T06:09:21.616Z,100.00
2022-12-18T06:11:53.480Z,100.00
2022-12-18T06:14:23.427Z,100.00
2022-12-18T06:16:53.449Z,100.00
2022-12-18T06:19:22.967Z,100.00
2022-12-18T06:21:52.562Z,100.00
2022-12-18T06:24:23.870Z,100.00
2022-12-18T06:26:53.466Z,100.00
2022-12-18T06:29:23.521Z,100.00
2022-12-18T06:31:53.135Z,100.00
2022-12-18T06:34:22.695Z,100.00
2022-12-18T06:36:52.362Z,100.00
2022-12-18T06:39:23.376Z,100.00
2022-12-18T06:41:53.123Z,100.00
2022-12-18T06:44:22.627Z,100.00
2022-12-18T06:46:52.328Z,100.00
2022-12-18T06:49:24.165Z,100.00
2022-12-18T06:51:56.893Z,100.00
2022-12-18T06:54:27.865Z,100.00
2022-12-18T06:56:57.394Z,100.00
2022-12-18T06:59:26.937Z,100.00
2022-12-18T07:01:57.666Z,100.00
2022-12-18T07:04:30.096Z,100.00
2022-12-18T07:06:59.703Z,100.00
2022-12-18T07:09:30.612Z,100.00
2022-12-18T07:12:01.197Z,100.00
2022-12-18T07:14:31.136Z,100.00
2022-12-18T07:17:01.321Z,100.00
2022-12-18T07:19:31.320Z,100.00
2022-12-18T07:22:03.137Z,100.00
2022-12-18T07:24:36.153Z,100.00
2022-12-18T07:27:06.244Z,100.00
2022-12-18T07:29:37.577Z,100.00
2022-12-18T07:32:08.113Z,100.00
2022-12-18T07:34:38.247Z,100.00
2022-12-18T07:37:07.725Z,100.00
2022-12-18T07:39:38.621Z,100.00
2022-12-18T07:42:39.909Z,100.00
2022-12-18T07:45:10.063Z,100.00
2022-12-18T07:47:39.908Z,100.00
2022-12-18T07:50:09.900Z,100.00
2022-12-18T07:52:39.608Z,100.00
2022-12-18T07:55:10.910Z,100.00
2022-12-18T07:58:00.863Z,100.00
2022-12-18T08:00:30.170Z,100.00
2022-12-18T08:02:59.852Z,100.00
2022-12-18T08:05:43.381Z,100.00
2022-12-18T08:08:13.456Z,100.00
2022-12-18T08:10:44.352Z,100.00
2022-12-18T08:13:14.498Z,100.00
2022-12-18T08:15:44.513Z,100.00
2022-12-18T08:18:14.571Z,100.00
2022-12-18T08:20:45.036Z,100.00
2022-12-18T08:23:14.679Z,100.00
2022-12-18T08:25:46.070Z,100.00
2022-12-18T08:28:15.611Z,100.00
2022-12-18T08:30:45.152Z,100.00
2022-12-18T08:33:14.704Z,100.00
2022-12-18T08:35:46.190Z,100.00
2022-12-18T08:38:15.797Z,100.00
2022-12-18T08:40:46.779Z,100.00
2022-12-18T08:43:33.741Z,100.00
2022-12-18T08:46:03.332Z,100.00
2022-12-18T08:48:33.116Z,100.00
2022-12-18T08:51:02.752Z,100.00
2022-12-18T08:53:35.595Z,100.00
2022-12-18T08:56:07.694Z,100.00
2022-12-18T08:58:37.307Z,100.00
2022-12-18T09:01:08.630Z,100.00
2022-12-18T09:03:38.853Z,100.00
2022-12-18T09:06:08.886Z,100.00
2022-12-18T09:08:39.270Z,100.00
2022-12-18T09:11:14.350Z,100.00
2022-12-18T09:13:44.788Z,100.00
2022-12-18T09:16:14.866Z,100.00
2022-12-18T09:18:44.751Z,100.00
2022-12-18T09:21:15.859Z,100.00
2022-12-18T09:23:45.803Z,100.00
2022-12-18T09:26:16.698Z,100.00
2022-12-18T09:28:46.420Z,100.00
2022-12-18T09:31:16.225Z,99.69
2022-12-18T09:33:46.798Z,100.00
2022-12-18T09:36:20.276Z,99.26
2022-12-18T09:38:51.396Z,97.82
2022-12-18T09:41:35.708Z,98.92
2022-12-18T09:44:07.961Z,98.09
2022-12-18T09:46:39.760Z,97.58
2022-12-18T09:49:14.451Z,97.10
2022-12-18T09:51:45.643Z,97.66
2022-12-18T09:54:18.909Z,98.43
2022-12-18T09:56:50.222Z,99.07
2022-12-18T09:59:23.151Z,100.00
2022-12-18T10:01:52.920Z,100.00
2022-12-18T10:04:22.617Z,100.00
2022-12-18T10:06:55.156Z,100.00
2022-12-18T10:09:29.545Z,100.00
2022-12-18T10:12:05.205Z,100.00
2022-12-18T10:14:43.003Z,100.00
2022-12-18T10:17:19.742Z,100.00
2022-12-18T10:19:52.721Z,100.00
2022-12-18T10:22:36.846Z,100.00
2022-12-18T10:25:15.139Z,100.00
2022-12-18T10:27:46.598Z,100.00
2022-12-18T10:30:17.153Z,100.00
2022-12-18T10:32:46.701Z,100.00
2022-12-18T10:35:19.880Z,100.00
2022-12-18T10:38:02.117Z,100.00
2022-12-18T10:40:31.765Z,100.00
2022-12-18T10:43:13.418Z,100.00
2022-12-18T10:45:42.978Z,100.00
2022-12-18T10:48:23.006Z,100.00
2022-12-18T10:53:44.606Z,100.00
2022-12-18T10:56:14.572Z,100.00
2022-12-18T10:58:57.258Z,100.00
2022-12-18T11:01:26.898Z,100.00
2022-12-18T11:04:10.614Z,100.00
2022-12-18T11:06:54.430Z,100.00
2022-12-18T11:09:25.113Z,100.00
2022-12-18T11:11:56.648Z,100.00
2022-12-18T11:14:31.003Z,100.00
2022-12-18T11:17:24.828Z,100.00
2022-12-18T11:19:55.438Z,100.00
2022-12-18T11:22:27.486Z,100.00
2022-12-18T11:25:30.326Z,100.00
2022-12-18T11:27:53.105Z,100.00
2022-12-18T11:30:25.929Z,100.00
2022-12-18T11:32:57.981Z,100.00
2022-12-18T11:35:32.670Z,100.00
2022-12-18T11:38:06.788Z,100.00
2022-12-18T11:40:41.311Z,100.00
2022-12-18T11:43:14.321Z,100.00
2022-12-18T11:45:48.969Z,100.00
2022-12-18T11:48:20.297Z,100.00
2022-12-18T11:50:52.188Z,100.00
2022-12-18T11:53:22.221Z,100.00
2022-12-18T11:55:57.150Z,100.00
2022-12-18T11:58:32.314Z,100.00
2022-12-18T12:01:08.440Z,100.00
2022-12-18T12:03:48.310Z,100.00
2022-12-18T12:06:23.939Z,100.00
2022-12-18T12:09:02.536Z,100.00
2022-12-18T12:11:37.288Z,100.00
2022-12-18T12:14:22.919Z,100.00
2022-12-18T12:16:58.122Z,100.00
2022-12-18T12:19:36.885Z,100.00
2022-12-18T12:22:11.092Z,100.00
2022-12-18T12:24:47.439Z,100.00
2022-12-18T12:27:20.702Z,100.00
2022-12-18T12:29:58.368Z,100.00
2022-12-18T12:32:35.643Z,100.00
2022-12-18T12:35:11.737Z,100.00
2022-12-18T12:37:46.278Z,100.00
2022-12-18T12:40:49.804Z,100.00
2022-12-18T12:43:14.049Z,100.00
2022-12-18T12:45:47.633Z,100.00
2022-12-18T12:48:21.596Z,100.00
2022-12-18T12:50:52.122Z,100.00
2022-12-18T12:53:26.595Z,100.00
2022-12-18T12:55:56.867Z,100.00
2022-12-18T12:58:33.379Z,100.00
2022-12-18T13:01:07.041Z,100.00
2022-12-18T13:03:46.342Z,100.00
2022-12-18T13:06:21.635Z,100.00
2022-12-18T13:08:56.944Z,100.00
2022-12-18T13:11:57.814Z,100.00
2022-12-18T13:14:31.578Z,100.00
2022-12-18T13:17:19.770Z,100.00
2022-12-18T13:19:52.913Z,100.00
2022-12-18T13:22:23.954Z,100.00
2022-12-18T13:24:53.598Z,100.00
2022-12-18T13:27:41.891Z,100.00
2022-12-18T13:30:26.729Z,100.00
2022-12-18T13:33:20.910Z,100.00
2022-12-18T13:35:55.872Z,100.00
2022-12-18T13:38:26.522Z,100.00
2022-12-18T13:40:57.918Z,100.00
2022-12-18T13:43:35.397Z,100.00
2022-12-18T13:46:19.071Z,100.00
2022-12-18T13:48:56.872Z,100.00
2022-12-18T13:51:28.441Z,100.00
2022-12-18T13:54:00.367Z,100.00
2022-12-18T13:56:31.181Z,100.00
2022-12-18T13:59:14.656Z,100.00
2022-12-18T14:01:45.470Z,100.00
2022-12-18T14:04:20.807Z,100.00
2022-12-18T14:06:53.818Z,100.00
2022-12-18T14:09:27.148Z,100.00
2022-12-18T14:12:19.417Z,100.00
2022-12-18T14:14:50.461Z,100.00
2022-12-18T14:17:25.192Z,100.00
2022-12-18T14:19:55.054Z,100.00
2022-12-18T14:22:30.561Z,100.00
2022-12-18T14:25:20.238Z,100.00
2022-12-18T14:27:52.070Z,100.00
2022-12-18T14:30:28.824Z,100.00
2022-12-18T14:33:05.632Z,100.00
2022-12-18T14:35:36.218Z,100.00
2022-12-18T14:38:20.083Z,100.00
2022-12-18T14:40:49.794Z,100.00
2022-12-18T14:43:19.401Z,100.00
2022-12-18T14:45:50.514Z,100.00
2022-12-18T14:48:23.514Z,100.00
2022-12-18T14:50:58.375Z,100.00
2022-12-18T14:53:34.842Z,100.00
2022-12-18T14:56:05.735Z,100.00
2022-12-18T14:58:36.335Z,100.00
2022-12-18T15:01:06.052Z,100.00
2022-12-18T15:03:35.663Z,100.00
2022-12-18T15:06:17.502Z,100.00
2022-12-18T15:08:48.966Z,100.00
2022-12-18T15:11:42.997Z,100.00
2022-12-18T15:14:32.470Z,100.00
2022-12-18T15:17:04.084Z,100.00
2022-12-18T15:19:39.932Z,100.00
2022-12-18T15:22:23.510Z,100.00
2022-12-18T15:24:55.064Z,100.00
2022-12-18T15:27:26.299Z,100.00
2022-12-18T15:30:14.761Z,100.00
2022-12-18T15:32:44.703Z,100.00
2022-12-18T15:35:19.394Z,100.00
2022-12-18T15:37:49.300Z,100.00
2022-12-18T15:40:21.466Z,100.00
2022-12-18T15:43:22.256Z,100.00
2022-12-18T15:45:51.984Z,100.00
2022-12-18T15:48:23.053Z,100.00
2022-12-18T15:50:53.366Z,100.00
2022-12-18T15:53:23.146Z,100.00
2022-12-18T15:56:12.108Z,100.00
2022-12-18T15:58:42.107Z,100.00
2022-12-18T16:01:12.770Z,100.00
2022-12-18T16:03:42.867Z,100.00
2022-12-18T16:06:12.911Z,100.00
2022-12-18T16:08:43.151Z,100.00
2022-12-18T16:11:20.021Z,100.00
2022-12-18T16:13:50.460Z,100.00
2022-12-18T16:16:22.242Z,100.00
2022-12-18T16:18:53.186Z,100.00
2022-12-18T16:21:22.969Z,100.00
2022-12-18T16:23:55.016Z,100.00
2022-12-18T16:26:26.188Z,100.00
2022-12-18T16:28:57.162Z,100.00
2022-12-18T16:31:26.841Z,100.00
2022-12-18T16:34:11.398Z,100.00
2022-12-18T16:36:41.352Z,100.00
2022-12-18T16:39:11.084Z,100.00
2022-12-18T16:41:42.139Z,100.00
2022-12-18T16:44:12.420Z,100.00
2022-12-18T16:46:44.026Z,100.00
2022-12-18T16:49:14.450Z,100.00
2022-12-18T16:51:44.467Z,100.00
2022-12-18T16:54:18.831Z,100.00
2022-12-18T16:56:52.367Z,100.00
2022-12-18T16:59:22.272Z,100.00
2022-12-18T17:01:52.099Z,100.00
2022-12-18T17:04:21.940Z,100.00
2022-12-18T17:06:54.053Z,100.00
2022-12-18T17:09:25.360Z,100.00
2022-12-18T17:11:57.237Z,100.00
2022-12-18T17:14:28.013Z,100.00
2022-12-18T17:17:20.207Z,100.00
2022-12-18T17:19:48.377Z,100.00
2022-12-18T17:22:18.113Z,100.00
2022-12-18T17:24:48.334Z,100.00
2022-12-18T17:27:19.464Z,100.00
2022-12-18T17:29:49.329Z,100.00
2022-12-18T17:32:19.438Z,100.00
2022-12-18T17:34:49.189Z,100.00
2022-12-18T17:37:20.262Z,100.00
2022-12-18T17:39:51.368Z,100.00
2022-12-18T17:42:22.509Z,100.00
2022-12-18T17:44:52.861Z,100.00
2022-12-18T17:47:23.173Z,100.00
2022-12-18T17:49:53.826Z,100.00
2022-12-18T17:52:25.289Z,100.00
2022-12-18T17:54:55.268Z,100.00
2022-12-18T17:57:26.375Z,100.00
2022-12-18T17:59:56.122Z,100.00
2022-12-18T18:02:26.246Z,100.00
2022-12-18T18:04:56.357Z,100.00
2022-12-18T18:07:26.306Z,100.00
2022-12-18T18:09:56.661Z,100.00
2022-12-18T18:12:46.067Z,100.00
2022-12-18T18:15:16.362Z,100.00
2022-12-18T18:17:46.669Z,100.00
2022-12-18T18:20:22.328Z,100.00
2022-12-18T18:22:52.727Z,100.00
2022-12-18T18:25:22.561Z,100.00
2022-12-18T18:27:53.746Z,100.00
2022-12-18T18:30:23.795Z,100.00
2022-12-18T18:32:53.552Z,100.00
2022-12-18T18:35:52.487Z,100.00
2022-12-18T18:38:13.704Z,100.00
2022-12-18T18:40:43.527Z,100.00
2022-12-18T18:43:17.188Z,100.00
2022-12-18T18:45:46.851Z,100.00
2022-12-18T18:48:18.403Z,100.00
2022-12-18T18:50:56.625Z,100.00
2022-12-18T18:53:26.912Z,100.00
2022-12-18T18:56:34.523Z,100.00
2022-12-18T18:58:57.315Z,100.00
2022-12-18T19:01:27.607Z,99.37
2022-12-18T19:03:57.509Z,100.00
2022-12-18T19:06:28.416Z,98.63
2022-12-18T19:08:59.816Z,98.81
2022-12-18T19:11:47.768Z,98.83
2022-12-18T19:14:19.239Z,98.24
2022-12-18T19:16:49.565Z,99.84
2022-12-18T19:19:23.457Z,98.58
2022-12-18T19:21:53.513Z,98.18
2022-12-18T19:24:23.134Z,98.18
2022-12-18T19:26:52.746Z,100.00
2022-12-18T19:29:27.770Z,100.00
2022-12-18T19:31:57.406Z,100.00
2022-12-18T19:34:27.604Z,100.00
2022-12-18T19:37:00.093Z,100.00
2022-12-18T19:39:29.910Z,100.00
2022-12-18T19:41:59.802Z,100.00
2022-12-18T19:44:40.036Z,100.00
2022-12-18T19:47:09.839Z,100.00
2022-12-18T19:49:39.732Z,100.00
2022-12-18T19:52:09.665Z,100.00
2022-12-18T19:54:39.200Z,100.00
2022-12-18T19:57:11.596Z,100.00
2022-12-18T19:59:42.795Z,100.00
2022-12-18T20:02:14.712Z,100.00
2022-12-18T20:04:44.707Z,100.00
2022-12-18T20:07:14.237Z,100.00
2022-12-18T20:09:44.473Z,100.00
2022-12-18T20:12:14.801Z,100.00
2022-12-18T20:14:46.166Z,100.00
2022-12-18T20:17:16.592Z,100.00
2022-12-18T20:19:46.532Z,100.00
2022-12-18T20:22:16.720Z,100.00
2022-12-18T20:24:46.457Z,100.00
2022-12-18T20:27:19.620Z,100.00
2022-12-18T20:29:50.999Z,100.00
2022-12-18T20:32:20.784Z,100.00
2022-12-18T20:34:50.749Z,100.00
2022-12-18T20:37:20.360Z,100.00
2022-12-18T20:39:51.819Z,100.00
2022-12-18T20:42:21.474Z,100.00
2022-12-18T20:44:52.401Z,100.00
2022-12-18T20:47:21.897Z,100.00
2022-12-18T20:49:51.489Z,100.00
2022-12-18T20:52:22.029Z,100.00
2022-12-18T20:54:53.590Z,100.00
2022-12-18T20:57:23.163Z,100.00
2022-12-18T20:59:54.156Z,100.00
2022-12-18T21:02:24.242Z,100.00
2022-12-18T21:04:55.341Z,100.00
2022-12-18T21:07:25.037Z,100.00
2022-12-18T21:09:55.128Z,100.00
2022-12-18T21:12:58.862Z,100.00
2022-12-18T21:15:33.195Z,100.00
2022-12-18T21:18:02.684Z,100.00
2022-12-18T21:20:33.563Z,100.00
2022-12-18T21:23:12.003Z,100.00
2022-12-18T21:25:46.980Z,100.00
2022-12-18T21:28:19.706Z,100.00
2022-12-18T21:30:50.769Z,100.00
2022-12-18T21:33:20.321Z,100.00
2022-12-18T21:35:49.847Z,100.00
2022-12-18T21:38:19.507Z,100.00
2022-12-18T21:40:49.115Z,100.00
2022-12-18T21:43:35.914Z,100.00
2022-12-18T21:46:07.192Z,100.00
2022-12-18T21:48:39.129Z,100.00
2022-12-18T21:51:08.880Z,100.00
2022-12-18T21:53:38.436Z,100.00
2022-12-18T21:56:08.431Z,100.00
2022-12-18T21:58:38.546Z,100.00
2022-12-18T22:01:31.529Z,100.00
2022-12-18T22:04:07.365Z,100.00
2022-12-18T22:06:37.437Z,100.00
2022-12-18T22:09:08.305Z,100.00
2022-12-18T22:11:38.118Z,100.00
2022-12-18T22:14:11.675Z,100.00
2022-12-18T22:16:43.822Z,100.00
2022-12-18T22:19:14.838Z,100.00
2022-12-18T22:21:45.818Z,100.00
2022-12-18T22:24:18.756Z,100.00
2022-12-18T22:26:49.611Z,100.00
2022-12-18T22:29:37.641Z,100.00
2022-12-18T22:32:09.500Z,100.00
2022-12-18T22:34:41.463Z,100.00
2022-12-18T22:37:14.537Z,100.00
2022-12-18T22:39:44.115Z,100.00
2022-12-18T22:42:15.567Z,100.00
2022-12-18T22:44:45.072Z,100.00
2022-12-18T22:47:16.083Z,100.00
2022-12-18T22:49:45.644Z,100.00
2022-12-18T22:52:15.448Z,100.00
2022-12-18T22:54:47.527Z,99.58
2022-12-18T22:57:17.098Z,100.00
2022-12-18T22:59:47.137Z,100.00
2022-12-18T23:02:19.029Z,100.00
2022-12-18T23:04:48.957Z,99.77
2022-12-18T23:07:18.721Z,100.00
2022-12-18T23:09:49.434Z,100.00
2022-12-18T23:12:20.936Z,100.00
2022-12-18T23:14:50.928Z,100.00
2022-12-18T23:17:23.086Z,100.00
2022-12-18T23:19:52.818Z,98.95
2022-12-18T23:22:22.768Z,99.30
2022-12-18T23:24:52.487Z,98.80
2022-12-18T23:27:22.029Z,97.52
2022-12-18T23:29:51.896Z,97.84
2022-12-18T23:32:24.077Z,97.22
2022-12-18T23:34:54.653Z,96.80
2022-12-18T23:37:57.035Z,97.86
2022-12-18T23:40:13.953Z,99.94
2022-12-18T23:42:43.390Z,99.48
2022-12-18T23:45:17.354Z,98.26
2022-12-18T23:47:51.350Z,97.18
2022-12-18T23:50:28.857Z,96.82
2022-12-18T23:53:05.576Z,98.40
2022-12-18T23:55:39.838Z,97.03
2022-12-18T23:58:10.049Z,98.12
